TimeCST,TemperatureF,Dew PointF,Humidity,Sea Level PressureIn,VisibilityMPH,Wind Direction,Wind SpeedMPH,Gust SpeedMPH,PrecipitationIn,Events,Conditions,WindDirDegrees,DateUTC
12:24 AM,-4.0,-9.4,78,30.00,10.0,North,-9999.0,-,N/A,,Scattered Clouds,0,2013-12-09 06:24:00
12:53 AM,-5.1,-9.9,80,30.13,10.0,North,-9999.0,-,N/A,,Partly Cloudy,0,2013-12-09 06:53:00
1:53 AM,-8.0,-14.1,75,30.14,10.0,North,-9999.0,-,N/A,,Unknown,0,2013-12-09 07:53:00
2:53 AM,-9.0,-15.0,75,30.15,10.0,North,-9999.0,-,N/A,,Clear,0,2013-12-09 08:53:00
3:53 AM,-9.9,-15.0,78,30.15,10.0,North,-9999.0,-,N/A,,Unknown,0,2013-12-09 09:53:00
4:22 AM,-9.4,-14.8,77,30.01,10.0,North,-9999.0,-,N/A,,Partly Cloudy,0,2013-12-09 10:22:00
4:53 AM,-9.9,-15.0,78,30.16,10.0,North,-9999.0,-,N/A,,Clear,0,2013-12-09 10:53:00
5:40 AM,-11.2,-16.6,77,30.04,10.0,West,18.4,-,N/A,,Clear,280,2013-12-09 11:40:00
5:53 AM,-9.9,-15.0,78,30.17,10.0,North,-9999.0,-,N/A,,Clear,0,2013-12-09 11:53:00
6:53 AM,-11.0,-16.1,78,30.18,10.0,North,-9999.0,-,N/A,,Clear,0,2013-12-09 12:53:00
7:05 AM,-11.2,-16.6,77,30.03,10.0,North,-9999.0,-,N/A,,Scattered Clouds,0,2013-12-09 13:05:00
7:53 AM,-11.0,-16.1,78,30.21,10.0,North,-9999.0,-,N/A,,Clear,0,2013-12-09 13:53:00
8:53 AM,-9.9,-15.0,78,30.22,10.0,North,-9999.0,-,N/A,,Clear,0,2013-12-09 14:53:00
9:53 AM,-9.0,-14.1,79,30.22,7.0,North,-9999.0,-,N/A,,Clear,0,2013-12-09 15:53:00
10:53 AM,-8.0,-14.1,75,30.23,-9999.0,North,-9999.0,-,N/A,,Unknown,0,2013-12-09 16:53:00
11:10 AM,-7.6,-11.2,84,30.07,10.0,West,13.8,-,N/A,,Clear,280,2013-12-09 17:10:00
12:53 PM,-2.0,-9.0,72,30.16,10.0,West,16.1,-,N/A,,Clear,260,2013-12-09 18:53:00
1:53 PM,-0.9,-8.0,72,30.12,10.0,WSW,13.8,-,N/A,,Clear,240,2013-12-09 19:53:00
2:53 PM,-0.0,-7.1,72,30.10,10.0,WSW,12.7,-,N/A,,Clear,240,2013-12-09 20:53:00
3:53 PM,-0.9,-7.1,75,30.08,10.0,SW,15.0,-,N/A,,Clear,220,2013-12-09 21:53:00
4:53 PM,-0.9,-7.1,75,30.04,-9999.0,South,12.7,-,N/A,,Unknown,180,2013-12-09 22:53:00
5:53 PM,-0.0,-7.1,72,30.00,10.0,South,15.0,-,N/A,,Partly Cloudy,180,2013-12-09 23:53:00
6:53 PM,1.9,-4.0,76,29.96,10.0,South,16.1,24.2,N/A,,Overcast,190,2013-12-10 00:53:00
7:53 PM,5.0,-0.9,76,29.91,10.0,SSW,19.6,27.6,N/A,,Unknown,200,2013-12-10 01:53:00
8:10 PM,6.8,-0.4,72,29.74,2.0,SSW,19.6,28.8,0.00,Snow,Light Snow,200,2013-12-10 02:10:00
8:20 PM,6.8,1.4,79,29.74,1.5,South,16.1,26.5,0.00,Snow,Light Snow,190,2013-12-10 02:20:00
8:45 PM,8.6,5.0,85,29.72,1.2,North,-9999.0,-,0.00,Snow,Light Snow,0,2013-12-10 02:45:00
8:53 PM,10.0,6.1,84,29.85,1.0,SSW,25.3,31.1,0.00,Snow,Light Snow,210,2013-12-10 02:53:00
9:06 PM,10.4,6.8,85,29.71,2.0,SW,19.6,28.8,0.00,Snow,Light Snow,220,2013-12-10 03:06:00
9:21 PM,10.4,8.6,92,29.70,1.8,SW,24.2,-,0.00,Snow,Light Snow,230,2013-12-10 03:21:00
9:30 PM,10.4,8.6,92,29.70,1.2,SW,23.0,29.9,0.00,Snow,Light Snow,230,2013-12-10 03:30:00
9:44 PM,12.2,8.6,85,29.69,2.0,SW,19.6,-,0.00,Snow,Light Snow,230,2013-12-10 03:44:00
9:53 PM,12.9,9.0,84,29.82,2.0,WSW,20.7,27.6,0.00,Snow,Light Snow,240,2013-12-10 03:53:00
10:11 PM,14.0,10.4,86,29.68,6.0,WSW,20.7,-,0.00,,Overcast,240,2013-12-10 04:11:00
10:53 PM,15.1,10.9,84,29.81,9.0,WSW,16.1,-,0.00,,Overcast,250,2013-12-10 04:53:00
11:46 PM,12.2,8.6,85,29.71,2.0,WNW,24.2,35.7,0.00,Snow,Light Snow,300,2013-12-10 05:46:00
11:53 PM,12.9,7.0,77,29.84,2.5,WNW,25.3,35.7,0.00,,Partly Cloudy,300,2013-12-10 05:53:00